sensor_id;sensor_type;location;lat;lon;timestamp;pressure;altitude;pressure_sealevel;temperature;humidity
57412;BME280;43247;52.828;-8.980;2023-04-05T00:00:10;101679.80;;;11.66;84.74
57412;BME280;43247;52.828;-8.980;2023-04-05T00:01:09;101682.09;;;11.67;84.76
57412;BME280;43247;52.828;-8.980;2023-04-05T00:02:09;101682.54;;;11.67;84.76
57412;BME280;43247;52.828;-8.980;2023-04-05T00:03:10;101681.89;;;11.67;84.73
57412;BME280;43247;52.828;-8.980;2023-04-05T00:04:10;101680.89;;;11.67;84.74
57412;BME280;43247;52.828;-8.980;2023-04-05T00:05:11;101680.77;;;11.67;84.70
57412;BME280;43247;52.828;-8.980;2023-04-05T00:06:12;101679.56;;;11.66;84.70
57412;BME280;43247;52.828;-8.980;2023-04-05T00:07:11;101679.93;;;11.66;84.68
57412;BME280;43247;52.828;-8.980;2023-04-05T00:08:12;101679.33;;;11.66;84.71
57412;BME280;43247;52.828;-8.980;2023-04-05T00:09:12;101678.75;;;11.66;84.70
57412;BME280;43247;52.828;-8.980;2023-04-05T00:10:12;101677.91;;;11.66;84.68
57412;BME280;43247;52.828;-8.980;2023-04-05T00:11:12;101677.65;;;11.67;84.74
57412;BME280;43247;52.828;-8.980;2023-04-05T00:12:12;101679.20;;;11.67;84.72
57412;BME280;43247;52.828;-8.980;2023-04-05T00:13:13;101681.03;;;11.66;84.70
57412;BME280;43247;52.828;-8.980;2023-04-05T00:14:13;101682.09;;;11.67;84.70
57412;BME280;43247;52.828;-8.980;2023-04-05T00:15:13;101682.76;;;11.66;84.68
57412;BME280;43247;52.828;-8.980;2023-04-05T00:16:14;101680.69;;;11.65;84.68
57412;BME280;43247;52.828;-8.980;2023-04-05T00:17:13;101678.15;;;11.65;84.71
57412;BME280;43247;52.828;-8.980;2023-04-05T00:18:14;101677.91;;;11.65;84.73
57412;BME280;43247;52.828;-8.980;2023-04-05T00:19:14;101676.12;;;11.65;84.73
57412;BME280;43247;52.828;-8.980;2023-04-05T00:20:14;101674.02;;;11.65;84.78
57412;BME280;43247;52.828;-8.980;2023-04-05T00:21:14;101674.51;;;11.64;84.76
57412;BME280;43247;52.828;-8.980;2023-04-05T00:22:14;101674.56;;;11.65;84.77
57412;BME280;43247;52.828;-8.980;2023-04-05T00:23:14;101671.64;;;11.65;84.76
57412;BME280;43247;52.828;-8.980;2023-04-05T00:24:15;101672.14;;;11.65;84.77
57412;BME280;43247;52.828;-8.980;2023-04-05T00:25:15;101674.95;;;11.64;84.74
57412;BME280;43247;52.828;-8.980;2023-04-05T00:26:15;101671.59;;;11.64;84.73
57412;BME280;43247;52.828;-8.980;2023-04-05T00:27:15;101675.95;;;11.64;84.74
57412;BME280;43247;52.828;-8.980;2023-04-05T00:28:15;101673.84;;;11.64;84.74
57412;BME280;43247;52.828;-8.980;2023-04-05T00:29:15;101672.30;;;11.64;84.75
57412;BME280;43247;52.828;-8.980;2023-04-05T00:30:16;101674.51;;;11.64;84.77
57412;BME280;43247;52.828;-8.980;2023-04-05T00:31:16;101669.28;;;11.64;84.78
57412;BME280;43247;52.828;-8.980;2023-04-05T00:32:16;101668.63;;;11.64;84.81
57412;BME280;43247;52.828;-8.980;2023-04-05T00:33:16;101669.47;;;11.64;84.79
57412;BME280;43247;52.828;-8.980;2023-04-05T00:34:16;101668.53;;;11.64;84.78
57412;BME280;43247;52.828;-8.980;2023-04-05T00:35:16;101666.95;;;11.64;84.76
57412;BME280;43247;52.828;-8.980;2023-04-05T00:36:18;101665.55;;;11.63;84.77
57412;BME280;43247;52.828;-8.980;2023-04-05T00:37:17;101665.99;;;11.64;84.79
57412;BME280;43247;52.828;-8.980;2023-04-05T00:38:17;101663.51;;;11.64;84.81
57412;BME280;43247;52.828;-8.980;2023-04-05T00:39:17;101662.05;;;11.64;84.81
57412;BME280;43247;52.828;-8.980;2023-04-05T00:40:18;101662.56;;;11.64;84.82
57412;BME280;43247;52.828;-8.980;2023-04-05T00:41:18;101663.11;;;11.64;84.78
57412;BME280;43247;52.828;-8.980;2023-04-05T00:42:18;101664.28;;;11.64;84.80
57412;BME280;43247;52.828;-8.980;2023-04-05T00:43:18;101665.53;;;11.64;84.81
57412;BME280;43247;52.828;-8.980;2023-04-05T00:44:18;101664.14;;;11.64;84.82
57412;BME280;43247;52.828;-8.980;2023-04-05T00:45:18;101667.26;;;11.64;84.79
57412;BME280;43247;52.828;-8.980;2023-04-05T00:46:19;101668.44;;;11.64;84.78
57412;BME280;43247;52.828;-8.980;2023-04-05T00:47:19;101669.02;;;11.64;84.79
57412;BME280;43247;52.828;-8.980;2023-04-05T00:48:19;101666.30;;;11.64;84.78
57412;BME280;43247;52.828;-8.980;2023-04-05T00:49:19;101666.23;;;11.64;84.78
57412;BME280;43247;52.828;-8.980;2023-04-05T00:50:20;101666.25;;;11.64;84.81
57412;BME280;43247;52.828;-8.980;2023-04-05T00:51:19;101664.83;;;11.64;84.82
57412;BME280;43247;52.828;-8.980;2023-04-05T00:52:19;101664.16;;;11.65;84.83
57412;BME280;43247;52.828;-8.980;2023-04-05T00:53:20;101666.98;;;11.64;84.85
57412;BME280;43247;52.828;-8.980;2023-04-05T00:54:20;101665.20;;;11.64;84.83
57412;BME280;43247;52.828;-8.980;2023-04-05T00:55:20;101664.11;;;11.64;84.81
57412;BME280;43247;52.828;-8.980;2023-04-05T00:56:21;101661.74;;;11.64;84.89
57412;BME280;43247;52.828;-8.980;2023-04-05T00:57:20;101659.93;;;11.64;84.89
57412;BME280;43247;52.828;-8.980;2023-04-05T00:58:21;101659.58;;;11.64;84.96
57412;BME280;43247;52.828;-8.980;2023-04-05T00:59:21;101657.01;;;11.64;84.94
57412;BME280;43247;52.828;-8.980;2023-04-05T01:00:21;101651.56;;;11.64;84.95
57412;BME280;43247;52.828;-8.980;2023-04-05T01:01:22;101655.42;;;11.65;84.90
57412;BME280;43247;52.828;-8.980;2023-04-05T01:02:27;101656.40;;;11.65;84.95
57412;BME280;43247;52.828;-8.980;2023-04-05T01:03:22;101657.37;;;11.64;84.92
57412;BME280;43247;52.828;-8.980;2023-04-05T01:04:24;101655.04;;;11.64;84.88
57412;BME280;43247;52.828;-8.980;2023-04-05T01:05:32;101653.26;;;11.64;84.94
57412;BME280;43247;52.828;-8.980;2023-04-05T01:06:30;101650.52;;;11.63;84.98
57412;BME280;43247;52.828;-8.980;2023-04-05T01:07:26;101655.58;;;11.63;85.04
57412;BME280;43247;52.828;-8.980;2023-04-05T01:08:30;101653.20;;;11.61;85.07
57412;BME280;43247;52.828;-8.980;2023-04-05T01:09:32;101654.06;;;11.61;85.08
57412;BME280;43247;52.828;-8.980;2023-04-05T01:10:29;101654.28;;;11.60;85.14
57412;BME280;43247;52.828;-8.980;2023-04-05T01:11:24;101652.81;;;11.60;85.15
57412;BME280;43247;52.828;-8.980;2023-04-05T01:12:26;101651.66;;;11.60;85.13
57412;BME280;43247;52.828;-8.980;2023-04-05T01:13:24;101646.85;;;11.60;85.13
57412;BME280;43247;52.828;-8.980;2023-04-05T01:14:23;101646.83;;;11.59;85.17
57412;BME280;43247;52.828;-8.980;2023-04-05T01:15:23;101647.57;;;11.59;85.25
57412;BME280;43247;52.828;-8.980;2023-04-05T01:16:24;101648.68;;;11.59;85.23
57412;BME280;43247;52.828;-8.980;2023-04-05T01:17:26;101646.95;;;11.59;85.21
57412;BME280;43247;52.828;-8.980;2023-04-05T01:18:24;101648.71;;;11.59;85.17
57412;BME280;43247;52.828;-8.980;2023-04-05T01:19:27;101647.99;;;11.60;85.14
57412;BME280;43247;52.828;-8.980;2023-04-05T01:20:24;101645.54;;;11.59;85.15
57412;BME280;43247;52.828;-8.980;2023-04-05T01:21:41;101644.52;;;11.59;85.14
57412;BME280;43247;52.828;-8.980;2023-04-05T01:22:42;101647.17;;;11.59;85.14
57412;BME280;43247;52.828;-8.980;2023-04-05T01:23:36;101646.06;;;11.59;85.17
57412;BME280;43247;52.828;-8.980;2023-04-05T01:24:35;101649.59;;;11.59;85.18
57412;BME280;43247;52.828;-8.980;2023-04-05T01:25:36;101647.29;;;11.59;85.21
57412;BME280;43247;52.828;-8.980;2023-04-05T01:27:30;101645.08;;;11.59;85.20
57412;BME280;43247;52.828;-8.980;2023-04-05T01:29:37;101644.67;;;11.59;85.21
57412;BME280;43247;52.828;-8.980;2023-04-05T01:30:29;101644.40;;;11.59;85.24
57412;BME280;43247;52.828;-8.980;2023-04-05T01:31:29;101643.30;;;11.59;85.20
57412;BME280;43247;52.828;-8.980;2023-04-05T01:32:37;101644.40;;;11.59;85.17
57412;BME280;43247;52.828;-8.980;2023-04-05T01:33:32;101641.55;;;11.59;85.18
57412;BME280;43247;52.828;-8.980;2023-04-05T01:34:35;101640.80;;;11.59;85.17
57412;BME280;43247;52.828;-8.980;2023-04-05T01:35:34;101638.23;;;11.59;85.16
57412;BME280;43247;52.828;-8.980;2023-04-05T01:36:30;101638.19;;;11.60;85.13
57412;BME280;43247;52.828;-8.980;2023-04-05T01:37:30;101636.77;;;11.60;85.20
57412;BME280;43247;52.828;-8.980;2023-04-05T01:38:28;101637.13;;;11.60;85.19
57412;BME280;43247;52.828;-8.980;2023-04-05T01:39:29;101637.59;;;11.61;85.18
57412;BME280;43247;52.828;-8.980;2023-04-05T01:40:29;101637.03;;;11.61;85.17
57412;BME280;43247;52.828;-8.980;2023-04-05T01:41:28;101635.71;;;11.61;85.14
57412;BME280;43247;52.828;-8.980;2023-04-05T01:42:28;101635.23;;;11.61;85.14
57412;BME280;43247;52.828;-8.980;2023-04-05T01:43:28;101634.32;;;11.61;85.15
57412;BME280;43247;52.828;-8.980;2023-04-05T01:44:29;101633.41;;;11.60;85.10
57412;BME280;43247;52.828;-8.980;2023-04-05T01:45:28;101634.13;;;11.61;85.16
57412;BME280;43247;52.828;-8.980;2023-04-05T01:46:29;101634.51;;;11.60;85.17
57412;BME280;43247;52.828;-8.980;2023-04-05T01:47:29;101635.59;;;11.60;85.20
57412;BME280;43247;52.828;-8.980;2023-04-05T01:48:29;101634.65;;;11.61;85.18
57412;BME280;43247;52.828;-8.980;2023-04-05T01:49:29;101633.39;;;11.62;85.17
57412;BME280;43247;52.828;-8.980;2023-04-05T01:50:29;101632.79;;;11.62;85.15
57412;BME280;43247;52.828;-8.980;2023-04-05T01:51:29;101629.31;;;11.63;85.15
57412;BME280;43247;52.828;-8.980;2023-04-05T01:52:30;101630.75;;;11.63;85.11
57412;BME280;43247;52.828;-8.980;2023-04-05T01:53:30;101628.80;;;11.63;85.13
57412;BME280;43247;52.828;-8.980;2023-04-05T01:54:30;101627.96;;;11.64;85.11
57412;BME280;43247;52.828;-8.980;2023-04-05T01:55:30;101627.34;;;11.63;85.13
57412;BME280;43247;52.828;-8.980;2023-04-05T01:56:30;101627.22;;;11.64;85.13
57412;BME280;43247;52.828;-8.980;2023-04-05T01:57:30;101625.52;;;11.64;85.07
57412;BME280;43247;52.828;-8.980;2023-04-05T01:58:31;101625.95;;;11.64;85.08
57412;BME280;43247;52.828;-8.980;2023-04-05T01:59:31;101624.68;;;11.64;85.08
57412;BME280;43247;52.828;-8.980;2023-04-05T02:00:31;101624.49;;;11.64;85.05
57412;BME280;43247;52.828;-8.980;2023-04-05T02:01:31;101621.03;;;11.65;85.00
57412;BME280;43247;52.828;-8.980;2023-04-05T02:02:31;101616.32;;;11.65;84.98
57412;BME280;43247;52.828;-8.980;2023-04-05T02:03:31;101618.58;;;11.65;84.99
57412;BME280;43247;52.828;-8.980;2023-04-05T02:04:32;101615.48;;;11.65;84.97
57412;BME280;43247;52.828;-8.980;2023-04-05T02:05:32;101614.18;;;11.66;84.97
57412;BME280;43247;52.828;-8.980;2023-04-05T02:06:32;101615.32;;;11.66;84.95
57412;BME280;43247;52.828;-8.980;2023-04-05T02:07:32;101609.24;;;11.66;84.95
57412;BME280;43247;52.828;-8.980;2023-04-05T02:08:32;101609.10;;;11.66;84.96
57412;BME280;43247;52.828;-8.980;2023-04-05T02:09:32;101609.48;;;11.66;84.98
57412;BME280;43247;52.828;-8.980;2023-04-05T02:10:33;101607.61;;;11.67;84.98
57412;BME280;43247;52.828;-8.980;2023-04-05T02:11:33;101605.97;;;11.67;84.98
57412;BME280;43247;52.828;-8.980;2023-04-05T02:12:33;101602.80;;;11.67;84.95
57412;BME280;43247;52.828;-8.980;2023-04-05T02:13:33;101604.15;;;11.67;84.96
57412;BME280;43247;52.828;-8.980;2023-04-05T02:14:33;101600.69;;;11.68;84.96
57412;BME280;43247;52.828;-8.980;2023-04-05T02:15:33;101601.99;;;11.68;84.97
57412;BME280;43247;52.828;-8.980;2023-04-05T02:16:34;101601.30;;;11.68;84.98
57412;BME280;43247;52.828;-8.980;2023-04-05T02:17:34;101600.46;;;11.69;84.98
57412;BME280;43247;52.828;-8.980;2023-04-05T02:18:35;101597.84;;;11.69;84.98
57412;BME280;43247;52.828;-8.980;2023-04-05T02:19:34;101595.00;;;11.69;84.98
57412;BME280;43247;52.828;-8.980;2023-04-05T02:20:34;101596.33;;;11.69;84.99
57412;BME280;43247;52.828;-8.980;2023-04-05T02:21:34;101593.78;;;11.69;85.00
57412;BME280;43247;52.828;-8.980;2023-04-05T02:22:35;101592.65;;;11.69;85.01
57412;BME280;43247;52.828;-8.980;2023-04-05T02:23:36;101591.74;;;11.69;85.01
57412;BME280;43247;52.828;-8.980;2023-04-05T02:24:35;101588.19;;;11.70;85.03
57412;BME280;43247;52.828;-8.980;2023-04-05T02:25:35;101589.95;;;11.70;85.06
57412;BME280;43247;52.828;-8.980;2023-04-05T02:26:35;101588.96;;;11.70;85.07
57412;BME280;43247;52.828;-8.980;2023-04-05T02:27:35;101590.79;;;11.70;85.09
57412;BME280;43247;52.828;-8.980;2023-04-05T02:28:35;101590.06;;;11.70;85.09
57412;BME280;43247;52.828;-8.980;2023-04-05T02:29:36;101586.49;;;11.70;85.12
57412;BME280;43247;52.828;-8.980;2023-04-05T02:30:36;101584.71;;;11.71;85.12
57412;BME280;43247;52.828;-8.980;2023-04-05T02:31:36;101582.20;;;11.71;85.09
57412;BME280;43247;52.828;-8.980;2023-04-05T02:32:36;101581.36;;;11.72;85.10
57412;BME280;43247;52.828;-8.980;2023-04-05T02:33:37;101576.55;;;11.72;85.16
57412;BME280;43247;52.828;-8.980;2023-04-05T02:34:37;101574.22;;;11.72;85.20
57412;BME280;43247;52.828;-8.980;2023-04-05T02:35:37;101575.97;;;11.72;85.20
57412;BME280;43247;52.828;-8.980;2023-04-05T02:36:37;101572.90;;;11.72;85.22
57412;BME280;43247;52.828;-8.980;2023-04-05T02:37:37;101573.19;;;11.73;85.26
57412;BME280;43247;52.828;-8.980;2023-04-05T02:38:37;101573.25;;;11.73;85.28
57412;BME280;43247;52.828;-8.980;2023-04-05T02:39:37;101574.73;;;11.73;85.30
57412;BME280;43247;52.828;-8.980;2023-04-05T02:40:37;101573.61;;;11.73;85.27
57412;BME280;43247;52.828;-8.980;2023-04-05T02:41:38;101572.26;;;11.73;85.25
57412;BME280;43247;52.828;-8.980;2023-04-05T02:42:38;101574.01;;;11.74;85.25
57412;BME280;43247;52.828;-8.980;2023-04-05T02:43:38;101573.44;;;11.74;85.25
57412;BME280;43247;52.828;-8.980;2023-04-05T02:44:38;101570.83;;;11.74;85.30
57412;BME280;43247;52.828;-8.980;2023-04-05T02:45:38;101571.66;;;11.74;85.33
57412;BME280;43247;52.828;-8.980;2023-04-05T02:46:38;101573.80;;;11.74;85.32
57412;BME280;43247;52.828;-8.980;2023-04-05T02:47:38;101574.95;;;11.74;85.34
57412;BME280;43247;52.828;-8.980;2023-04-05T02:48:39;101573.81;;;11.75;85.38
57412;BME280;43247;52.828;-8.980;2023-04-05T02:49:39;101571.57;;;11.75;85.38
57412;BME280;43247;52.828;-8.980;2023-04-05T02:50:39;101569.51;;;11.75;85.42
57412;BME280;43247;52.828;-8.980;2023-04-05T02:51:39;101568.76;;;11.75;85.44
57412;BME280;43247;52.828;-8.980;2023-04-05T02:52:39;101568.12;;;11.76;85.48
57412;BME280;43247;52.828;-8.980;2023-04-05T02:53:39;101569.85;;;11.76;85.54
57412;BME280;43247;52.828;-8.980;2023-04-05T02:54:40;101568.05;;;11.76;85.60
57412;BME280;43247;52.828;-8.980;2023-04-05T02:55:40;101563.29;;;11.76;85.64
57412;BME280;43247;52.828;-8.980;2023-04-05T02:56:40;101561.95;;;11.76;85.68
57412;BME280;43247;52.828;-8.980;2023-04-05T02:57:42;101559.47;;;11.76;85.66
57412;BME280;43247;52.828;-8.980;2023-04-05T02:58:40;101559.64;;;11.76;85.58
57412;BME280;43247;52.828;-8.980;2023-04-05T02:59:41;101558.19;;;11.75;85.69
57412;BME280;43247;52.828;-8.980;2023-04-05T03:00:41;101556.15;;;11.75;85.81
57412;BME280;43247;52.828;-8.980;2023-04-05T03:01:41;101557.40;;;11.74;85.70
57412;BME280;43247;52.828;-8.980;2023-04-05T03:02:41;101551.90;;;11.74;85.60
57412;BME280;43247;52.828;-8.980;2023-04-05T03:03:41;101549.62;;;11.75;85.58
57412;BME280;43247;52.828;-8.980;2023-04-05T03:04:41;101548.99;;;11.75;85.67
57412;BME280;43247;52.828;-8.980;2023-04-05T03:05:41;101545.42;;;11.74;85.68
57412;BME280;43247;52.828;-8.980;2023-04-05T03:06:42;101546.79;;;11.75;85.69
57412;BME280;43247;52.828;-8.980;2023-04-05T03:07:42;101545.22;;;11.74;85.70
57412;BME280;43247;52.828;-8.980;2023-04-05T03:08:42;101544.09;;;11.74;85.70
57412;BME280;43247;52.828;-8.980;2023-04-05T03:09:42;101540.99;;;11.74;85.75
57412;BME280;43247;52.828;-8.980;2023-04-05T03:10:42;101540.35;;;11.74;85.72
57412;BME280;43247;52.828;-8.980;2023-04-05T03:11:42;101540.01;;;11.74;85.66
57412;BME280;43247;52.828;-8.980;2023-04-05T03:12:43;101540.03;;;11.74;85.60
57412;BME280;43247;52.828;-8.980;2023-04-05T03:13:43;101541.18;;;11.74;85.60
57412;BME280;43247;52.828;-8.980;2023-04-05T03:14:43;101543.59;;;11.74;85.66
57412;BME280;43247;52.828;-8.980;2023-04-05T03:15:43;101544.05;;;11.74;85.69
57412;BME280;43247;52.828;-8.980;2023-04-05T03:16:43;101545.22;;;11.74;85.62
57412;BME280;43247;52.828;-8.980;2023-04-05T03:17:43;101544.04;;;11.74;85.63
57412;BME280;43247;52.828;-8.980;2023-04-05T03:18:44;101543.68;;;11.74;85.70
57412;BME280;43247;52.828;-8.980;2023-04-05T03:19:44;101541.05;;;11.74;85.64
57412;BME280;43247;52.828;-8.980;2023-04-05T03:20:44;101542.22;;;11.74;85.62
57412;BME280;43247;52.828;-8.980;2023-04-05T03:21:44;101541.44;;;11.75;85.70
57412;BME280;43247;52.828;-8.980;2023-04-05T03:22:44;101540.76;;;11.75;85.67
57412;BME280;43247;52.828;-8.980;2023-04-05T03:23:45;101542.10;;;11.75;85.63
57412;BME280;43247;52.828;-8.980;2023-04-05T03:24:45;101538.98;;;11.75;85.66
57412;BME280;43247;52.828;-8.980;2023-04-05T03:25:45;101540.89;;;11.75;85.78
57412;BME280;43247;52.828;-8.980;2023-04-05T03:26:46;101538.70;;;11.76;85.77
57412;BME280;43247;52.828;-8.980;2023-04-05T03:27:45;101538.07;;;11.76;85.76
57412;BME280;43247;52.828;-8.980;2023-04-05T03:28:45;101538.31;;;11.76;85.78
57412;BME280;43247;52.828;-8.980;2023-04-05T03:29:45;101535.58;;;11.76;85.87
57412;BME280;43247;52.828;-8.980;2023-04-05T03:30:46;101533.71;;;11.76;85.88
57412;BME280;43247;52.828;-8.980;2023-04-05T03:31:46;101533.21;;;11.76;85.79
57412;BME280;43247;52.828;-8.980;2023-04-05T03:32:46;101534.09;;;11.76;86.04
57412;BME280;43247;52.828;-8.980;2023-04-05T03:33:46;101532.22;;;11.76;86.00
57412;BME280;43247;52.828;-8.980;2023-04-05T03:34:46;101532.07;;;11.75;85.98
57412;BME280;43247;52.828;-8.980;2023-04-05T03:35:47;101530.72;;;11.75;86.03
57412;BME280;43247;52.828;-8.980;2023-04-05T03:36:47;101528.92;;;11.75;86.03
57412;BME280;43247;52.828;-8.980;2023-04-05T03:37:47;101531.88;;;11.75;86.07
57412;BME280;43247;52.828;-8.980;2023-04-05T03:38:47;101531.35;;;11.75;86.10
57412;BME280;43247;52.828;-8.980;2023-04-05T03:39:47;101527.97;;;11.76;86.16
57412;BME280;43247;52.828;-8.980;2023-04-05T03:40:47;101527.34;;;11.75;86.08
57412;BME280;43247;52.828;-8.980;2023-04-05T03:41:47;101525.35;;;11.75;86.00
57412;BME280;43247;52.828;-8.980;2023-04-05T03:42:48;101525.76;;;11.76;86.08
57412;BME280;43247;52.828;-8.980;2023-04-05T03:43:48;101527.34;;;11.76;86.08
57412;BME280;43247;52.828;-8.980;2023-04-05T03:44:51;101526.33;;;11.76;86.00
57412;BME280;43247;52.828;-8.980;2023-04-05T03:45:49;101523.86;;;11.76;86.07
57412;BME280;43247;52.828;-8.980;2023-04-05T03:46:49;101521.13;;;11.76;86.10
57412;BME280;43247;52.828;-8.980;2023-04-05T03:47:49;101520.81;;;11.77;86.11
57412;BME280;43247;52.828;-8.980;2023-04-05T03:48:49;101524.08;;;11.77;86.10
57412;BME280;43247;52.828;-8.980;2023-04-05T03:49:49;101522.23;;;11.77;86.03
57412;BME280;43247;52.828;-8.980;2023-04-05T03:50:49;101521.83;;;11.77;86.00
57412;BME280;43247;52.828;-8.980;2023-04-05T03:51:50;101525.55;;;11.78;86.07
57412;BME280;43247;52.828;-8.980;2023-04-05T03:52:50;101524.95;;;11.78;86.15
57412;BME280;43247;52.828;-8.980;2023-04-05T03:53:50;101527.10;;;11.78;86.19
57412;BME280;43247;52.828;-8.980;2023-04-05T03:54:50;101528.85;;;11.79;86.27
57412;BME280;43247;52.828;-8.980;2023-04-05T03:55:50;101529.07;;;11.79;86.37
57412;BME280;43247;52.828;-8.980;2023-04-05T03:56:51;101530.41;;;11.79;86.31
57412;BME280;43247;52.828;-8.980;2023-04-05T03:57:51;101527.57;;;11.78;86.24
57412;BME280;43247;52.828;-8.980;2023-04-05T03:58:51;101528.11;;;11.79;86.31
57412;BME280;43247;52.828;-8.980;2023-04-05T03:59:51;101528.34;;;11.79;86.31
57412;BME280;43247;52.828;-8.980;2023-04-05T04:00:51;101525.08;;;11.79;86.27
57412;BME280;43247;52.828;-8.980;2023-04-05T04:01:52;101522.94;;;11.79;86.28
57412;BME280;43247;52.828;-8.980;2023-04-05T04:02:52;101522.25;;;11.79;86.24
57412;BME280;43247;52.828;-8.980;2023-04-05T04:03:52;101519.82;;;11.80;86.32
57412;BME280;43247;52.828;-8.980;2023-04-05T04:04:52;101521.08;;;11.80;86.25
57412;BME280;43247;52.828;-8.980;2023-04-05T04:05:52;101520.16;;;11.80;86.27
57412;BME280;43247;52.828;-8.980;2023-04-05T04:06:53;101517.36;;;11.80;86.27
57412;BME280;43247;52.828;-8.980;2023-04-05T04:07:52;101517.09;;;11.80;86.30
57412;BME280;43247;52.828;-8.980;2023-04-05T04:08:53;101517.40;;;11.80;86.30
57412;BME280;43247;52.828;-8.980;2023-04-05T04:09:53;101521.46;;;11.81;86.34
57412;BME280;43247;52.828;-8.980;2023-04-05T04:10:53;101520.94;;;11.81;86.35
57412;BME280;43247;52.828;-8.980;2023-04-05T04:11:54;101521.68;;;11.81;86.29
57412;BME280;43247;52.828;-8.980;2023-04-05T04:12:54;101518.32;;;11.82;86.30
57412;BME280;43247;52.828;-8.980;2023-04-05T04:13:54;101514.77;;;11.81;86.28
57412;BME280;43247;52.828;-8.980;2023-04-05T04:14:54;101514.46;;;11.81;86.28
57412;BME280;43247;52.828;-8.980;2023-04-05T04:15:54;101513.31;;;11.82;86.36
57412;BME280;43247;52.828;-8.980;2023-04-05T04:16:55;101509.75;;;11.82;86.40
57412;BME280;43247;52.828;-8.980;2023-04-05T04:17:55;101511.97;;;11.82;86.45
57412;BME280;43247;52.828;-8.980;2023-04-05T04:18:55;101511.03;;;11.81;86.38
57412;BME280;43247;52.828;-8.980;2023-04-05T04:19:56;101512.42;;;11.81;86.31
57412;BME280;43247;52.828;-8.980;2023-04-05T04:20:55;101511.89;;;11.82;86.37
57412;BME280;43247;52.828;-8.980;2023-04-05T04:21:55;101514.30;;;11.82;86.30
57412;BME280;43247;52.828;-8.980;2023-04-05T04:22:57;101512.02;;;11.82;86.31
57412;BME280;43247;52.828;-8.980;2023-04-05T04:23:56;101512.54;;;11.82;86.30
57412;BME280;43247;52.828;-8.980;2023-04-05T04:24:56;101515.04;;;11.83;86.34
57412;BME280;43247;52.828;-8.980;2023-04-05T04:25:56;101515.38;;;11.83;86.29
57412;BME280;43247;52.828;-8.980;2023-04-05T04:26:56;101514.64;;;11.83;86.25
57412;BME280;43247;52.828;-8.980;2023-04-05T04:27:57;101514.71;;;11.83;86.30
57412;BME280;43247;52.828;-8.980;2023-04-05T04:28:57;101513.36;;;11.83;86.24
57412;BME280;43247;52.828;-8.980;2023-04-05T04:29:57;101512.17;;;11.83;86.20
57412;BME280;43247;52.828;-8.980;2023-04-05T04:30:57;101513.99;;;11.84;86.20
57412;BME280;43247;52.828;-8.980;2023-04-05T04:31:57;101510.22;;;11.83;86.24
57412;BME280;43247;52.828;-8.980;2023-04-05T04:32:57;101508.78;;;11.83;86.25
57412;BME280;43247;52.828;-8.980;2023-04-05T04:33:57;101510.20;;;11.83;86.21
57412;BME280;43247;52.828;-8.980;2023-04-05T04:34:58;101508.29;;;11.82;86.23
57412;BME280;43247;52.828;-8.980;2023-04-05T04:35:58;101509.21;;;11.82;86.32
57412;BME280;43247;52.828;-8.980;2023-04-05T04:36:58;101506.26;;;11.83;86.41
57412;BME280;43247;52.828;-8.980;2023-04-05T04:38:00;101506.23;;;11.83;86.27
57412;BME280;43247;52.828;-8.980;2023-04-05T04:38:58;101505.49;;;11.83;86.31
57412;BME280;43247;52.828;-8.980;2023-04-05T04:39:58;101508.64;;;11.83;86.34
57412;BME280;43247;52.828;-8.980;2023-04-05T04:40:59;101505.68;;;11.83;86.28
57412;BME280;43247;52.828;-8.980;2023-04-05T04:41:59;101507.12;;;11.84;86.34
57412;BME280;43247;52.828;-8.980;2023-04-05T04:42:59;101508.06;;;11.84;86.37
57412;BME280;43247;52.828;-8.980;2023-04-05T04:43:59;101504.56;;;11.84;86.30
57412;BME280;43247;52.828;-8.980;2023-04-05T04:44:59;101506.34;;;11.83;86.25
57412;BME280;43247;52.828;-8.980;2023-04-05T04:45:59;101505.33;;;11.83;86.24
57412;BME280;43247;52.828;-8.980;2023-04-05T04:47:00;101507.25;;;11.83;86.22
57412;BME280;43247;52.828;-8.980;2023-04-05T04:48:00;101506.26;;;11.83;86.17
57412;BME280;43247;52.828;-8.980;2023-04-05T04:49:00;101505.99;;;11.83;86.15
57412;BME280;43247;52.828;-8.980;2023-04-05T04:50:00;101504.10;;;11.83;86.17
57412;BME280;43247;52.828;-8.980;2023-04-05T04:51:01;101506.50;;;11.84;86.21
57412;BME280;43247;52.828;-8.980;2023-04-05T04:52:00;101505.08;;;11.84;86.20
57412;BME280;43247;52.828;-8.980;2023-04-05T04:53:01;101506.29;;;11.84;86.18
57412;BME280;43247;52.828;-8.980;2023-04-05T04:54:01;101505.92;;;11.84;86.19
57412;BME280;43247;52.828;-8.980;2023-04-05T04:55:01;101506.91;;;11.83;86.12
57412;BME280;43247;52.828;-8.980;2023-04-05T04:56:05;101506.40;;;11.83;86.11
57412;BME280;43247;52.828;-8.980;2023-04-05T04:57:01;101502.68;;;11.84;86.12
57412;BME280;43247;52.828;-8.980;2023-04-05T04:58:02;101503.48;;;11.83;86.18
57412;BME280;43247;52.828;-8.980;2023-04-05T04:59:02;101502.33;;;11.84;86.15
57412;BME280;43247;52.828;-8.980;2023-04-05T05:00:04;101503.36;;;11.84;86.12
57412;BME280;43247;52.828;-8.980;2023-04-05T05:01:06;101500.19;;;11.83;86.11
57412;BME280;43247;52.828;-8.980;2023-04-05T05:02:04;101497.84;;;11.84;86.18
57412;BME280;43247;52.828;-8.980;2023-04-05T05:03:04;101497.65;;;11.84;86.12
57412;BME280;43247;52.828;-8.980;2023-04-05T05:04:04;101497.28;;;11.84;86.11
57412;BME280;43247;52.828;-8.980;2023-04-05T05:05:05;101498.67;;;11.84;86.05
57412;BME280;43247;52.828;-8.980;2023-04-05T05:06:05;101499.20;;;11.83;86.05
57412;BME280;43247;52.828;-8.980;2023-04-05T05:07:05;101498.63;;;11.84;86.06
57412;BME280;43247;52.828;-8.980;2023-04-05T05:08:05;101497.48;;;11.83;86.01
57412;BME280;43247;52.828;-8.980;2023-04-05T05:09:05;101496.76;;;11.84;86.03
57412;BME280;43247;52.828;-8.980;2023-04-05T05:10:07;101498.39;;;11.84;86.02
57412;BME280;43247;52.828;-8.980;2023-04-05T05:11:06;101496.01;;;11.84;86.02
57412;BME280;43247;52.828;-8.980;2023-04-05T05:12:06;101492.96;;;11.84;86.06